createdAt,value
2022-07-31T00:03:14.164Z,101763.00
2022-07-31T00:08:18.834Z,101767.41
2022-07-31T00:13:57.798Z,101777.19
2022-07-31T00:18:46.285Z,101782.56
2022-07-31T00:23:50.664Z,101784.34
2022-07-31T00:28:53.944Z,101762.94
2022-07-31T00:33:56.910Z,101760.22
2022-07-31T00:39:01.266Z,101745.06
2022-07-31T00:44:04.408Z,101737.03
2022-07-31T00:49:09.268Z,101735.25
2022-07-31T00:54:22.648Z,101724.56
2022-07-31T00:59:26.590Z,101736.16
2022-07-31T01:04:31.228Z,101730.81
2022-07-31T01:09:35.900Z,101727.22
2022-07-31T01:14:42.971Z,101729.78
2022-07-31T01:19:47.329Z,101732.50
2022-07-31T01:25:04.979Z,101730.59
2022-07-31T01:30:14.412Z,101730.63
2022-07-31T01:35:21.878Z,101729.72
2022-07-31T01:40:31.805Z,101724.34
2022-07-31T01:45:40.007Z,101734.16
2022-07-31T01:50:44.987Z,101730.59
2022-07-31T01:56:02.671Z,101722.53
2022-07-31T02:01:16.463Z,101714.50
2022-07-31T02:06:21.955Z,101717.13
2022-07-31T02:11:25.638Z,101716.25
2022-07-31T02:16:30.840Z,101719.75
2022-07-31T02:21:41.521Z,101704.56
2022-07-31T02:26:45.374Z,101704.50
2022-07-31T02:32:02.897Z,101692.84
2022-07-31T02:37:09.264Z,101703.50
2022-07-31T02:42:12.751Z,101694.53
2022-07-31T02:47:18.269Z,101691.88
2022-07-31T02:52:22.077Z,101677.66
2022-07-31T02:57:25.728Z,101686.53
2022-07-31T03:02:36.835Z,101676.72
2022-07-31T03:07:41.741Z,101667.84
2022-07-31T03:12:46.763Z,101674.97
2022-07-31T03:17:51.663Z,101674.94
2022-07-31T03:23:03.150Z,101676.72
2022-07-31T03:28:07.734Z,101672.22
2022-07-31T03:33:12.384Z,101656.25
2022-07-31T03:38:34.964Z,101657.09
2022-07-31T03:43:43.676Z,101656.16
2022-07-31T03:48:53.390Z,101659.69
2022-07-31T03:53:59.515Z,101663.19
2022-07-31T03:59:27.396Z,101674.72
2022-07-31T04:04:34.904Z,101669.34
2022-07-31T04:09:39.938Z,101672.00
2022-07-31T04:14:44.030Z,101674.63
2022-07-31T04:19:49.910Z,101672.75
2022-07-31T04:24:53.266Z,101663.78
2022-07-31T04:30:03.081Z,101659.25
2022-07-31T04:35:10.036Z,101666.13
2022-07-31T04:40:13.746Z,101665.06
2022-07-31T04:45:18.008Z,101657.66
2022-07-31T04:50:22.514Z,101653.13
2022-07-31T04:55:33.861Z,101656.59
2022-07-31T05:00:37.047Z,101655.59
2022-07-31T05:05:45.358Z,101639.66
2022-07-31T05:11:06.509Z,101647.75
2022-07-31T05:16:12.917Z,101649.69
2022-07-31T05:21:18.270Z,101658.81
2022-07-31T05:26:32.611Z,101655.47
2022-07-31T05:31:35.695Z,101652.00
2022-07-31T05:36:40.214Z,101646.72
2022-07-31T05:41:44.695Z,101653.94
2022-07-31T05:51:55.154Z,101647.72
2022-07-31T05:56:58.141Z,101640.66
2022-07-31T06:02:09.174Z,101644.28
2022-07-31T06:07:33.857Z,101636.34
2022-07-31T06:12:37.733Z,101644.41
2022-07-31T06:17:44.397Z,101638.28
2022-07-31T06:23:14.564Z,101627.66
2022-07-31T06:28:49.288Z,101636.66
2022-07-31T06:33:54.340Z,101639.41
2022-07-31T06:39:02.597Z,101639.44
2022-07-31T06:44:05.933Z,101643.09
2022-07-31T06:49:27.509Z,101653.81
2022-07-31T06:54:32.320Z,101657.47
2022-07-31T06:59:40.493Z,101645.09
2022-07-31T07:05:05.093Z,101633.66
2022-07-31T07:10:09.708Z,101632.00
2022-07-31T07:15:39.013Z,101630.28
2022-07-31T07:20:42.382Z,101628.50
2022-07-31T07:25:46.825Z,101626.75
2022-07-31T07:30:51.636Z,101616.97
2022-07-31T07:35:56.169Z,101619.66
2022-07-31T07:41:01.074Z,101614.28
2022-07-31T07:46:04.269Z,101608.06
2022-07-31T07:51:07.906Z,101615.19
2022-07-31T07:56:24.611Z,101613.41
2022-07-31T08:01:48.131Z,101611.59
2022-07-31T08:06:56.168Z,101615.19
2022-07-31T08:12:05.768Z,101609.81
2022-07-31T08:17:37.891Z,101618.75
2022-07-31T08:22:41.883Z,101627.66
2022-07-31T08:27:48.004Z,101627.66
2022-07-31T08:32:52.087Z,101628.53
2022-07-31T08:38:03.288Z,101625.88
2022-07-31T08:44:00.168Z,101627.66
2022-07-31T08:48:42.666Z,101621.31
2022-07-31T08:53:46.703Z,101624.94
2022-07-31T08:58:57.086Z,101620.56
2022-07-31T09:04:00.488Z,101624.09
2022-07-31T09:09:04.678Z,101622.28
2022-07-31T09:14:10.735Z,101619.56
2022-07-31T09:19:51.377Z,101619.56
2022-07-31T09:24:53.459Z,101605.25
2022-07-31T09:29:58.544Z,101617.75
2022-07-31T09:35:21.804Z,101606.03
2022-07-31T09:40:39.939Z,101619.38
2022-07-31T09:46:43.108Z,101598.75
2022-07-31T09:51:49.182Z,101593.34
2022-07-31T09:56:56.681Z,101598.69
2022-07-31T10:02:03.160Z,101603.94
2022-07-31T10:07:07.207Z,101603.81
2022-07-31T10:12:17.109Z,101602.06
2022-07-31T10:17:26.303Z,101602.13
2022-07-31T10:22:49.164Z,101613.09
2022-07-31T10:27:58.228Z,101603.53
2022-07-31T10:33:17.542Z,101597.31
2022-07-31T10:39:02.919Z,101582.03
2022-07-31T10:44:38.516Z,101571.09
2022-07-31T10:50:21.887Z,101579.09
2022-07-31T10:55:39.795Z,101579.06
2022-07-31T11:01:08.854Z,101577.13
2022-07-31T11:06:15.307Z,101569.72
2022-07-31T11:11:41.626Z,101563.16
2022-07-31T11:18:22.742Z,101555.97
2022-07-31T11:23:03.324Z,101559.31
2022-07-31T11:28:16.073Z,101565.72
2022-07-31T11:33:30.453Z,101552.41
2022-07-31T11:38:49.758Z,101551.38
2022-07-31T11:43:54.435Z,101546.09
2022-07-31T11:48:58.064Z,101550.69
2022-07-31T11:54:02.457Z,101557.88
2022-07-31T11:59:05.782Z,101556.09
2022-07-31T12:04:09.374Z,101551.41
2022-07-31T12:10:02.709Z,101531.84
2022-07-31T12:14:38.912Z,101534.56
2022-07-31T12:19:42.528Z,101534.41
2022-07-31T12:24:48.562Z,101536.91
2022-07-31T12:29:51.704Z,101535.31
2022-07-31T12:35:03.775Z,101539.19
2022-07-31T12:40:09.809Z,101530.16
2022-07-31T12:45:19.791Z,101534.41
2022-07-31T12:50:24.643Z,101530.97
2022-07-31T12:55:30.762Z,101526.13
2022-07-31T13:00:38.126Z,101526.91
2022-07-31T13:05:43.010Z,101532.00
2022-07-31T13:10:48.449Z,101535.34
2022-07-31T13:15:52.091Z,101536.53
2022-07-31T13:20:55.126Z,101531.38
2022-07-31T13:26:00.806Z,101529.47
2022-07-31T13:31:04.167Z,101524.94
2022-07-31T13:36:07.403Z,101531.81
2022-07-31T13:41:28.445Z,101520.13
2022-07-31T13:46:32.316Z,101515.47
2022-07-31T13:51:35.448Z,101523.53
2022-07-31T13:56:43.515Z,101519.56
2022-07-31T14:02:04.329Z,101530.53
2022-07-31T14:07:09.326Z,101541.13
2022-07-31T14:12:13.924Z,101538.03
2022-07-31T14:17:18.409Z,101520.91
2022-07-31T14:22:21.539Z,101517.06
2022-07-31T14:27:26.034Z,101523.94
2022-07-31T14:32:30.853Z,101510.94
2022-07-31T14:37:34.041Z,101513.69
2022-07-31T14:42:39.269Z,101520.19
2022-07-31T14:47:42.458Z,101512.22
2022-07-31T14:52:45.526Z,101518.38
2022-07-31T14:57:51.813Z,101526.88
2022-07-31T15:02:54.812Z,101533.41
2022-07-31T15:07:58.117Z,101529.00
2022-07-31T15:13:02.748Z,101528.94
2022-07-31T15:18:06.287Z,101538.78
2022-07-31T15:23:09.488Z,101534.44
2022-07-31T15:28:14.102Z,101531.06
2022-07-31T15:33:17.227Z,101538.44
2022-07-31T15:38:20.352Z,101533.09
2022-07-31T15:43:24.871Z,101546.50
2022-07-31T15:48:28.173Z,101544.75
2022-07-31T15:53:39.042Z,101546.50
2022-07-31T15:58:43.849Z,101545.66
2022-07-31T16:03:51.167Z,101532.25
2022-07-31T16:08:56.551Z,101537.56
2022-07-31T16:14:00.944Z,101535.75
2022-07-31T16:19:04.221Z,101533.97
2022-07-31T16:24:08.510Z,101517.88
2022-07-31T16:29:17.491Z,101509.75
2022-07-31T16:34:21.011Z,101512.28
2022-07-31T16:39:24.008Z,101505.94
2022-07-31T16:44:28.434Z,101497.16
2022-07-31T16:49:36.338Z,101496.31
2022-07-31T16:54:40.345Z,101501.59
2022-07-31T16:59:56.926Z,101503.34
2022-07-31T17:05:01.620Z,101504.25
2022-07-31T17:10:05.176Z,101498.88
2022-07-31T17:15:11.678Z,101506.06
2022-07-31T17:20:15.171Z,101503.44
2022-07-31T17:25:18.347Z,101504.38
2022-07-31T17:30:22.869Z,101516.91
2022-07-31T17:35:26.154Z,101519.66
2022-07-31T17:40:42.919Z,101522.31
2022-07-31T17:45:59.718Z,101531.28
2022-07-31T17:51:10.381Z,101522.38
2022-07-31T17:56:13.592Z,101518.78
2022-07-31T18:01:18.168Z,101540.25
2022-07-31T18:06:21.468Z,101544.72
2022-07-31T18:11:26.232Z,101544.75
2022-07-31T18:16:30.983Z,101551.00
2022-07-31T18:21:34.172Z,101541.16
2022-07-31T18:26:37.518Z,101532.25
2022-07-31T18:31:42.036Z,101542.06
2022-07-31T18:36:45.281Z,101544.75
2022-07-31T18:41:49.171Z,101551.84
2022-07-31T18:46:53.912Z,101550.09
2022-07-31T18:51:56.977Z,101564.31
2022-07-31T18:56:59.947Z,101559.88
2022-07-31T19:02:04.771Z,101561.63
2022-07-31T19:07:09.147Z,101559.88
2022-07-31T19:12:13.976Z,101566.97
2022-07-31T19:17:21.381Z,101557.91
2022-07-31T19:22:24.797Z,101571.16
2022-07-31T19:27:47.811Z,101573.78
2022-07-31T19:32:52.204Z,101568.50
2022-07-31T19:37:59.475Z,101585.47
2022-07-31T19:43:02.730Z,101573.03
2022-07-31T19:48:07.690Z,101573.03
2022-07-31T19:53:10.788Z,101589.09
2022-07-31T19:58:13.757Z,101597.97
2022-07-31T20:03:18.768Z,101598.88
2022-07-31T20:08:22.380Z,101601.41
2022-07-31T20:13:25.601Z,101604.91
2022-07-31T20:18:30.766Z,101604.84
2022-07-31T20:23:34.658Z,101613.69
2022-07-31T20:28:40.265Z,101619.91
2022-07-31T20:33:56.851Z,101616.41
2022-07-31T20:39:01.209Z,101621.84
2022-07-31T20:44:04.221Z,101617.44
2022-07-31T20:49:08.946Z,101619.28
2022-07-31T20:54:34.634Z,101616.59
2022-07-31T20:59:37.860Z,101618.38
2022-07-31T21:04:43.227Z,101632.63
2022-07-31T21:09:46.673Z,101622.81
2022-07-31T21:14:49.799Z,101622.78
2022-07-31T21:19:54.316Z,101624.56
2022-07-31T21:24:58.011Z,101622.78
2022-07-31T21:30:02.422Z,101635.25
2022-07-31T21:35:09.602Z,101637.94
2022-07-31T21:40:14.437Z,101632.56
2022-07-31T21:45:18.604Z,101624.53
2022-07-31T21:50:29.021Z,101630.81
2022-07-31T21:55:32.402Z,101624.59
2022-07-31T22:00:35.556Z,101628.16
2022-07-31T22:05:57.803Z,101621.97
2022-07-31T22:11:01.528Z,101632.63
2022-07-31T22:16:04.919Z,101621.97
2022-07-31T22:21:10.007Z,101634.38
2022-07-31T22:26:13.556Z,101637.94
2022-07-31T22:31:17.056Z,101637.06
2022-07-31T22:36:21.871Z,101646.00
2022-07-31T22:41:25.017Z,101643.31
2022-07-31T22:46:28.913Z,101660.22
2022-07-31T22:51:38.888Z,101674.31
2022-07-31T22:56:42.771Z,101673.38
2022-07-31T23:01:45.998Z,101669.75
2022-07-31T23:06:50.612Z,101671.50
2022-07-31T23:11:54.004Z,101678.66
2022-07-31T23:16:57.217Z,101673.31
2022-07-31T23:22:02.289Z,101683.91
2022-07-31T23:27:08.391Z,101700.75
2022-07-31T23:32:11.490Z,101687.34
2022-07-31T23:37:15.866Z,101681.91
2022-07-31T23:42:36.499Z,101681.91
2022-07-31T23:47:45.623Z,101684.56
2022-07-31T23:52:51.058Z,101676.50
2022-07-31T23:57:53.981Z,101680.03
